This is the latest recevied weather packets stored in our database for station/object W0CHP-13. If no packets are shown the sender has not sent any weather packets the latest 10 day(s).
| Time | Temp. | Humidity | Pressure | Rain* | Wind** | Luminosity | Snow |
|---|---|---|---|---|---|---|---|
| 1777987996 | 12.78° C | 33% | 1008.9 hPa | 0 mm | - | 272 W/m² | - |
| 1777987398 | 12.22° C | 33% | 1008.7 hPa | 0 mm | - | 221 W/m² | - |
| 1777986796 | 10.56° C | 35% | 1008.5 hPa | 0 mm | - | 180 W/m² | - |
| 1777986198 | 9.44° C | 41% | 1008.5 hPa | 0 mm | - | 97 W/m² | - |
| 1777985596 | 8.33° C | 45% | 1008.2 hPa | 0 mm | - | 87 W/m² | - |
| 1777984998 | 7.78° C | 48% | 1008.2 hPa | 0 mm | - | 63 W/m² | - |
| 1777984397 | 6.67° C | 49% | 1007.8 hPa | 0 mm | - | 41 W/m² | - |
| 1777983795 | 6.67° C | 50% | 1007.8 hPa | 0 mm | - | 32 W/m² | - |
| 1777983197 | 6.11° C | 51% | 1007.5 hPa | 0 mm | - | 29 W/m² | - |
| 1777982595 | 5.56° C | 51% | 1007.5 hPa | 0 mm | - | 27 W/m² | - |
| 1777981997 | 5.56° C | 51% | 1007.2 hPa | 0 mm | - | 24 W/m² | - |
| 1777981396 | 5.56° C | 51% | 1006.8 hPa | 0 mm | - | 21 W/m² | - |
| 1777980798 | 5° C | 51% | 1006.8 hPa | 0 mm | - | 18 W/m² | - |
| 1777980196 | 5° C | 51% | 1006.8 hPa | 0 mm | - | 14 W/m² | - |
| 1777979598 | 5.56° C | 51% | 1006.6 hPa | 0 mm | - | 10 W/m² | - |
| 1777978997 | 5.56° C | 50% | 1006.5 hPa | 0 mm | - | 6 W/m² | - |
| 1777978399 | 5.56° C | 50% | 1006.1 hPa | 0 mm | - | 2 W/m² | - |
| 1777977797 | 5.56° C | 50% | 1006.1 hPa | 0 mm | - | 1 W/m² | - |
| 1777977195 | 5.56° C | 50% | 1005.8 hPa | 0 mm | - | 0 W/m² | - |
| 1777976597 | 6.11° C | 49% | 1005.6 hPa | 0 mm | - | 0 W/m² | - |
| 1777975995 | 6.11° C | 49% | 1005.8 hPa | 0 mm | - | 0 W/m² | - |
| 1777975398 | 6.11° C | 49% | 1005.6 hPa | 0 mm | - | 0 W/m² | - |
| 1777974796 | 6.67° C | 48% | 1005.8 hPa | 0 mm | - | 0 W/m² | - |
| 1777974198 | 6.67° C | 48% | 1005.4 hPa | 0 mm | - | 0 W/m² | - |
| 1777973596 | 6.67° C | 46% | 1005.8 hPa | 0 mm | - | 0 W/m² | - |
* Rain latest hour (hover to see other rain measurements)
** Current wind speed in m/s (hover to see current wind gust speed)